sensor_id;sensor_type;location;lat;lon;timestamp;P1;durP1;ratioP1;P2;durP2;ratioP2
16139;SDS011;8175;49.326;12.690;2023-02-04T00:00:52;8.87;;;2.30;;
16139;SDS011;8175;49.326;12.690;2023-02-04T00:03:18;8.43;;;2.13;;
16139;SDS011;8175;49.326;12.690;2023-02-04T00:05:44;8.80;;;2.83;;
16139;SDS011;8175;49.326;12.690;2023-02-04T00:08:09;6.90;;;2.47;;
16139;SDS011;8175;49.326;12.690;2023-02-04T00:10:35;8.13;;;2.10;;
16139;SDS011;8175;49.326;12.690;2023-02-04T00:13:02;10.07;;;2.27;;
16139;SDS011;8175;49.326;12.690;2023-02-04T00:15:28;8.33;;;2.30;;
16139;SDS011;8175;49.326;12.690;2023-02-04T00:17:54;5.23;;;1.80;;
16139;SDS011;8175;49.326;12.690;2023-02-04T00:20:20;4.27;;;1.67;;
16139;SDS011;8175;49.326;12.690;2023-02-04T00:22:46;13.60;;;2.87;;
16139;SDS011;8175;49.326;12.690;2023-02-04T00:25:12;8.07;;;2.37;;
16139;SDS011;8175;49.326;12.690;2023-02-04T00:27:38;6.43;;;2.07;;
16139;SDS011;8175;49.326;12.690;2023-02-04T00:30:04;6.10;;;2.37;;
16139;SDS011;8175;49.326;12.690;2023-02-04T00:32:31;6.57;;;1.60;;
16139;SDS011;8175;49.326;12.690;2023-02-04T00:34:57;8.80;;;2.30;;
16139;SDS011;8175;49.326;12.690;2023-02-04T00:37:22;6.80;;;2.27;;
16139;SDS011;8175;49.326;12.690;2023-02-04T00:39:48;6.03;;;2.53;;
16139;SDS011;8175;49.326;12.690;2023-02-04T00:42:14;8.73;;;2.33;;
16139;SDS011;8175;49.326;12.690;2023-02-04T00:44:40;3.47;;;2.03;;
16139;SDS011;8175;49.326;12.690;2023-02-04T00:47:05;5.67;;;2.43;;
16139;SDS011;8175;49.326;12.690;2023-02-04T00:49:34;4.67;;;1.60;;
16139;SDS011;8175;49.326;12.690;2023-02-04T00:52:00;7.27;;;2.10;;
16139;SDS011;8175;49.326;12.690;2023-02-04T00:54:26;6.60;;;2.87;;
16139;SDS011;8175;49.326;12.690;2023-02-04T00:56:51;5.63;;;1.37;;
16139;SDS011;8175;49.326;12.690;2023-02-04T00:59:17;7.13;;;2.03;;
16139;SDS011;8175;49.326;12.690;2023-02-04T01:01:42;5.83;;;1.67;;
16139;SDS011;8175;49.326;12.690;2023-02-04T01:04:08;7.43;;;1.93;;
16139;SDS011;8175;49.326;12.690;2023-02-04T01:06:34;7.33;;;2.30;;
16139;SDS011;8175;49.326;12.690;2023-02-04T01:09:00;7.13;;;2.57;;
16139;SDS011;8175;49.326;12.690;2023-02-04T01:11:28;3.77;;;1.87;;
16139;SDS011;8175;49.326;12.690;2023-02-04T01:13:54;9.83;;;1.93;;
16139;SDS011;8175;49.326;12.690;2023-02-04T01:16:20;4.77;;;1.63;;
16139;SDS011;8175;49.326;12.690;2023-02-04T01:18:46;7.33;;;2.43;;
16139;SDS011;8175;49.326;12.690;2023-02-04T01:21:11;6.17;;;1.90;;
16139;SDS011;8175;49.326;12.690;2023-02-04T01:23:37;8.47;;;2.13;;
16139;SDS011;8175;49.326;12.690;2023-02-04T01:26:03;8.33;;;2.43;;
16139;SDS011;8175;49.326;12.690;2023-02-04T01:28:29;7.83;;;2.43;;
16139;SDS011;8175;49.326;12.690;2023-02-04T01:30:54;7.53;;;1.67;;
16139;SDS011;8175;49.326;12.690;2023-02-04T01:33:20;7.33;;;2.23;;
16139;SDS011;8175;49.326;12.690;2023-02-04T01:35:46;8.13;;;1.77;;
16139;SDS011;8175;49.326;12.690;2023-02-04T01:38:12;5.60;;;1.90;;
16139;SDS011;8175;49.326;12.690;2023-02-04T01:40:37;5.70;;;1.73;;
16139;SDS011;8175;49.326;12.690;2023-02-04T01:43:03;7.87;;;1.70;;
16139;SDS011;8175;49.326;12.690;2023-02-04T01:45:30;8.27;;;1.70;;
16139;SDS011;8175;49.326;12.690;2023-02-04T01:47:58;4.97;;;1.27;;
16139;SDS011;8175;49.326;12.690;2023-02-04T01:50:24;10.23;;;2.07;;
16139;SDS011;8175;49.326;12.690;2023-02-04T01:52:50;3.77;;;1.43;;
16139;SDS011;8175;49.326;12.690;2023-02-04T01:55:17;7.40;;;1.77;;
16139;SDS011;8175;49.326;12.690;2023-02-04T01:57:44;7.77;;;1.83;;
16139;SDS011;8175;49.326;12.690;2023-02-04T02:00:14;6.07;;;1.83;;
16139;SDS011;8175;49.326;12.690;2023-02-04T02:02:45;6.23;;;1.93;;
16139;SDS011;8175;49.326;12.690;2023-02-04T02:05:14;6.97;;;1.60;;
16139;SDS011;8175;49.326;12.690;2023-02-04T02:07:42;2.97;;;1.40;;
16139;SDS011;8175;49.326;12.690;2023-02-04T02:10:08;8.90;;;2.23;;
16139;SDS011;8175;49.326;12.690;2023-02-04T02:12:36;4.67;;;1.80;;
16139;SDS011;8175;49.326;12.690;2023-02-04T02:15:02;9.90;;;2.87;;
16139;SDS011;8175;49.326;12.690;2023-02-04T02:17:28;4.53;;;1.50;;
16139;SDS011;8175;49.326;12.690;2023-02-04T02:19:54;4.63;;;1.73;;
16139;SDS011;8175;49.326;12.690;2023-02-04T02:22:27;8.80;;;2.33;;
16139;SDS011;8175;49.326;12.690;2023-02-04T02:24:57;10.50;;;1.80;;
16139;SDS011;8175;49.326;12.690;2023-02-04T02:27:23;4.60;;;1.80;;
16139;SDS011;8175;49.326;12.690;2023-02-04T02:29:48;3.53;;;1.87;;
16139;SDS011;8175;49.326;12.690;2023-02-04T02:32:15;3.20;;;1.30;;
16139;SDS011;8175;49.326;12.690;2023-02-04T02:34:41;5.73;;;1.50;;
16139;SDS011;8175;49.326;12.690;2023-02-04T02:37:08;5.90;;;2.40;;
16139;SDS011;8175;49.326;12.690;2023-02-04T02:39:35;3.50;;;1.53;;
16139;SDS011;8175;49.326;12.690;2023-02-04T02:42:04;4.20;;;1.70;;
16139;SDS011;8175;49.326;12.690;2023-02-04T02:44:30;3.00;;;1.37;;
16139;SDS011;8175;49.326;12.690;2023-02-04T02:46:57;3.87;;;1.33;;
16139;SDS011;8175;49.326;12.690;2023-02-04T02:49:23;2.77;;;1.40;;
16139;SDS011;8175;49.326;12.690;2023-02-04T02:51:52;6.33;;;1.47;;
16139;SDS011;8175;49.326;12.690;2023-02-04T02:54:22;9.37;;;1.50;;
16139;SDS011;8175;49.326;12.690;2023-02-04T02:56:50;2.87;;;1.10;;
16139;SDS011;8175;49.326;12.690;2023-02-04T02:59:16;4.90;;;1.43;;
16139;SDS011;8175;49.326;12.690;2023-02-04T03:01:43;4.53;;;1.27;;
16139;SDS011;8175;49.326;12.690;2023-02-04T03:04:12;8.07;;;1.50;;
16139;SDS011;8175;49.326;12.690;2023-02-04T03:06:39;3.77;;;1.60;;
16139;SDS011;8175;49.326;12.690;2023-02-04T03:09:05;5.27;;;1.60;;
16139;SDS011;8175;49.326;12.690;2023-02-04T03:11:31;10.60;;;1.83;;
16139;SDS011;8175;49.326;12.690;2023-02-04T03:13:57;4.47;;;1.87;;
16139;SDS011;8175;49.326;12.690;2023-02-04T03:16:26;6.07;;;1.30;;
16139;SDS011;8175;49.326;12.690;2023-02-04T03:18:53;4.20;;;1.80;;
16139;SDS011;8175;49.326;12.690;2023-02-04T03:21:18;8.03;;;1.60;;
16139;SDS011;8175;49.326;12.690;2023-02-04T03:23:44;5.40;;;2.03;;
16139;SDS011;8175;49.326;12.690;2023-02-04T03:26:10;7.40;;;1.97;;
16139;SDS011;8175;49.326;12.690;2023-02-04T03:28:39;3.17;;;1.47;;
16139;SDS011;8175;49.326;12.690;2023-02-04T03:31:05;4.27;;;1.17;;
16139;SDS011;8175;49.326;12.690;2023-02-04T03:33:31;7.00;;;2.30;;
16139;SDS011;8175;49.326;12.690;2023-02-04T03:35:57;6.90;;;2.13;;
16139;SDS011;8175;49.326;12.690;2023-02-04T03:38:23;5.17;;;1.33;;
16139;SDS011;8175;49.326;12.690;2023-02-04T03:40:49;8.23;;;1.90;;
16139;SDS011;8175;49.326;12.690;2023-02-04T03:43:15;5.43;;;1.63;;
16139;SDS011;8175;49.326;12.690;2023-02-04T03:45:40;2.63;;;1.33;;
16139;SDS011;8175;49.326;12.690;2023-02-04T03:48:06;5.17;;;1.80;;
16139;SDS011;8175;49.326;12.690;2023-02-04T03:50:31;7.33;;;1.80;;
16139;SDS011;8175;49.326;12.690;2023-02-04T03:52:57;7.17;;;2.40;;
16139;SDS011;8175;49.326;12.690;2023-02-04T03:55:23;10.20;;;2.90;;
16139;SDS011;8175;49.326;12.690;2023-02-04T03:57:50;4.80;;;1.90;;
16139;SDS011;8175;49.326;12.690;2023-02-04T04:00:16;10.20;;;2.33;;
16139;SDS011;8175;49.326;12.690;2023-02-04T04:02:42;4.63;;;1.70;;
16139;SDS011;8175;49.326;12.690;2023-02-04T04:05:08;5.00;;;1.90;;
16139;SDS011;8175;49.326;12.690;2023-02-04T04:07:34;9.93;;;2.90;;
16139;SDS011;8175;49.326;12.690;2023-02-04T04:09:59;5.93;;;2.00;;
16139;SDS011;8175;49.326;12.690;2023-02-04T04:12:25;6.57;;;2.17;;
16139;SDS011;8175;49.326;12.690;2023-02-04T04:14:50;3.80;;;1.67;;
16139;SDS011;8175;49.326;12.690;2023-02-04T04:17:16;3.33;;;1.37;;
16139;SDS011;8175;49.326;12.690;2023-02-04T04:19:42;2.07;;;1.50;;
16139;SDS011;8175;49.326;12.690;2023-02-04T04:22:08;4.20;;;1.00;;
16139;SDS011;8175;49.326;12.690;2023-02-04T04:24:34;4.50;;;1.50;;
16139;SDS011;8175;49.326;12.690;2023-02-04T04:27:00;3.60;;;1.67;;
16139;SDS011;8175;49.326;12.690;2023-02-04T04:29:26;2.20;;;1.13;;
16139;SDS011;8175;49.326;12.690;2023-02-04T04:31:51;7.97;;;1.60;;
16139;SDS011;8175;49.326;12.690;2023-02-04T04:34:17;4.77;;;1.33;;
16139;SDS011;8175;49.326;12.690;2023-02-04T04:36:43;4.87;;;1.83;;
16139;SDS011;8175;49.326;12.690;2023-02-04T04:39:08;2.70;;;1.50;;
16139;SDS011;8175;49.326;12.690;2023-02-04T04:41:34;4.50;;;1.40;;
16139;SDS011;8175;49.326;12.690;2023-02-04T04:44:00;1.03;;;1.03;;
16139;SDS011;8175;49.326;12.690;2023-02-04T04:46:25;4.07;;;1.30;;
16139;SDS011;8175;49.326;12.690;2023-02-04T04:48:51;3.73;;;1.10;;
16139;SDS011;8175;49.326;12.690;2023-02-04T04:51:16;4.70;;;1.17;;
16139;SDS011;8175;49.326;12.690;2023-02-04T04:53:42;1.53;;;1.23;;
16139;SDS011;8175;49.326;12.690;2023-02-04T04:56:08;0.90;;;0.90;;
16139;SDS011;8175;49.326;12.690;2023-02-04T04:58:33;1.03;;;0.80;;
16139;SDS011;8175;49.326;12.690;2023-02-04T05:00:59;3.13;;;0.83;;
16139;SDS011;8175;49.326;12.690;2023-02-04T05:03:24;1.97;;;0.77;;
16139;SDS011;8175;49.326;12.690;2023-02-04T05:05:50;2.10;;;1.07;;
16139;SDS011;8175;49.326;12.690;2023-02-04T05:08:15;0.80;;;0.53;;
16139;SDS011;8175;49.326;12.690;2023-02-04T05:10:43;1.27;;;1.00;;
16139;SDS011;8175;49.326;12.690;2023-02-04T05:13:09;1.53;;;1.20;;
16139;SDS011;8175;49.326;12.690;2023-02-04T05:15:35;0.90;;;0.90;;
16139;SDS011;8175;49.326;12.690;2023-02-04T05:18:01;0.73;;;0.73;;
16139;SDS011;8175;49.326;12.690;2023-02-04T05:20:26;0.80;;;0.80;;
16139;SDS011;8175;49.326;12.690;2023-02-04T05:22:52;1.10;;;1.00;;
16139;SDS011;8175;49.326;12.690;2023-02-04T05:25:19;1.10;;;1.00;;
16139;SDS011;8175;49.326;12.690;2023-02-04T05:27:46;1.03;;;1.03;;
16139;SDS011;8175;49.326;12.690;2023-02-04T05:30:13;1.10;;;1.00;;
16139;SDS011;8175;49.326;12.690;2023-02-04T05:32:39;1.57;;;1.10;;
16139;SDS011;8175;49.326;12.690;2023-02-04T05:35:05;1.33;;;1.30;;
16139;SDS011;8175;49.326;12.690;2023-02-04T05:37:31;1.20;;;1.20;;
16139;SDS011;8175;49.326;12.690;2023-02-04T05:39:56;1.10;;;1.10;;
16139;SDS011;8175;49.326;12.690;2023-02-04T05:42:22;1.17;;;1.17;;
16139;SDS011;8175;49.326;12.690;2023-02-04T05:44:48;1.30;;;1.30;;
16139;SDS011;8175;49.326;12.690;2023-02-04T05:47:14;1.37;;;1.27;;
16139;SDS011;8175;49.326;12.690;2023-02-04T05:49:39;1.50;;;1.40;;
16139;SDS011;8175;49.326;12.690;2023-02-04T05:52:05;1.40;;;1.30;;
16139;SDS011;8175;49.326;12.690;2023-02-04T05:54:31;1.80;;;1.70;;
16139;SDS011;8175;49.326;12.690;2023-02-04T05:56:56;1.80;;;1.37;;
16139;SDS011;8175;49.326;12.690;2023-02-04T05:59:22;1.40;;;1.30;;
16139;SDS011;8175;49.326;12.690;2023-02-04T06:01:48;2.23;;;1.30;;
16139;SDS011;8175;49.326;12.690;2023-02-04T06:04:13;1.50;;;1.40;;
16139;SDS011;8175;49.326;12.690;2023-02-04T06:06:42;1.20;;;1.20;;
16139;SDS011;8175;49.326;12.690;2023-02-04T06:09:08;1.10;;;1.10;;
16139;SDS011;8175;49.326;12.690;2023-02-04T06:11:34;2.87;;;1.40;;
16139;SDS011;8175;49.326;12.690;2023-02-04T06:13:59;1.40;;;1.30;;
16139;SDS011;8175;49.326;12.690;2023-02-04T06:16:25;1.60;;;1.50;;
16139;SDS011;8175;49.326;12.690;2023-02-04T06:18:51;1.50;;;1.40;;
16139;SDS011;8175;49.326;12.690;2023-02-04T06:21:16;2.90;;;2.00;;
16139;SDS011;8175;49.326;12.690;2023-02-04T06:23:42;1.30;;;1.27;;
16139;SDS011;8175;49.326;12.690;2023-02-04T06:26:08;2.37;;;1.60;;
16139;SDS011;8175;49.326;12.690;2023-02-04T06:28:34;2.33;;;1.77;;
16139;SDS011;8175;49.326;12.690;2023-02-04T06:30:59;1.83;;;1.73;;
16139;SDS011;8175;49.326;12.690;2023-02-04T06:33:25;1.20;;;1.20;;
16139;SDS011;8175;49.326;12.690;2023-02-04T06:35:51;1.53;;;1.30;;
16139;SDS011;8175;49.326;12.690;2023-02-04T06:38:16;1.20;;;1.20;;
16139;SDS011;8175;49.326;12.690;2023-02-04T06:40:43;1.10;;;1.10;;
16139;SDS011;8175;49.326;12.690;2023-02-04T06:43:09;1.50;;;1.40;;
16139;SDS011;8175;49.326;12.690;2023-02-04T06:45:34;1.20;;;1.10;;
16139;SDS011;8175;49.326;12.690;2023-02-04T06:48:00;1.60;;;1.50;;
16139;SDS011;8175;49.326;12.690;2023-02-04T06:50:26;4.20;;;3.00;;
16139;SDS011;8175;49.326;12.690;2023-02-04T06:52:51;1.60;;;1.50;;
16139;SDS011;8175;49.326;12.690;2023-02-04T06:55:17;1.67;;;1.40;;
16139;SDS011;8175;49.326;12.690;2023-02-04T06:57:42;1.27;;;1.17;;
16139;SDS011;8175;49.326;12.690;2023-02-04T07:00:09;2.37;;;2.17;;
16139;SDS011;8175;49.326;12.690;2023-02-04T07:02:35;1.40;;;1.30;;
16139;SDS011;8175;49.326;12.690;2023-02-04T07:05:03;2.60;;;2.40;;
16139;SDS011;8175;49.326;12.690;2023-02-04T07:07:29;2.63;;;2.43;;
16139;SDS011;8175;49.326;12.690;2023-02-04T07:09:55;1.97;;;1.87;;
16139;SDS011;8175;49.326;12.690;2023-02-04T07:12:21;1.60;;;1.50;;
16139;SDS011;8175;49.326;12.690;2023-02-04T07:14:46;1.67;;;1.57;;
16139;SDS011;8175;49.326;12.690;2023-02-04T07:17:12;1.73;;;1.63;;
16139;SDS011;8175;49.326;12.690;2023-02-04T07:19:38;3.60;;;2.30;;
16139;SDS011;8175;49.326;12.690;2023-02-04T07:22:03;3.27;;;2.87;;
16139;SDS011;8175;49.326;12.690;2023-02-04T07:24:29;3.83;;;2.93;;
16139;SDS011;8175;49.326;12.690;2023-02-04T07:26:55;2.07;;;1.87;;
16139;SDS011;8175;49.326;12.690;2023-02-04T07:29:20;7.60;;;6.40;;
16139;SDS011;8175;49.326;12.690;2023-02-04T07:31:46;6.47;;;5.77;;
16139;SDS011;8175;49.326;12.690;2023-02-04T07:34:15;1.27;;;1.20;;
16139;SDS011;8175;49.326;12.690;2023-02-04T07:36:41;1.57;;;1.47;;
16139;SDS011;8175;49.326;12.690;2023-02-04T07:39:07;2.33;;;1.50;;
16139;SDS011;8175;49.326;12.690;2023-02-04T07:41:33;1.67;;;1.57;;
16139;SDS011;8175;49.326;12.690;2023-02-04T07:43:58;1.70;;;1.60;;
16139;SDS011;8175;49.326;12.690;2023-02-04T07:46:24;1.90;;;1.80;;
16139;SDS011;8175;49.326;12.690;2023-02-04T07:48:50;1.50;;;1.40;;
16139;SDS011;8175;49.326;12.690;2023-02-04T07:51:15;2.73;;;2.30;;
16139;SDS011;8175;49.326;12.690;2023-02-04T07:53:41;2.33;;;2.13;;
16139;SDS011;8175;49.326;12.690;2023-02-04T07:56:06;1.83;;;1.70;;
16139;SDS011;8175;49.326;12.690;2023-02-04T07:58:32;1.63;;;1.53;;
16139;SDS011;8175;49.326;12.690;2023-02-04T08:00:58;1.00;;;1.00;;
16139;SDS011;8175;49.326;12.690;2023-02-04T08:03:25;1.67;;;1.57;;
16139;SDS011;8175;49.326;12.690;2023-02-04T08:05:51;1.00;;;1.00;;
16139;SDS011;8175;49.326;12.690;2023-02-04T08:08:17;1.57;;;1.47;;
16139;SDS011;8175;49.326;12.690;2023-02-04T08:10:42;0.80;;;0.80;;
16139;SDS011;8175;49.326;12.690;2023-02-04T08:13:08;1.63;;;0.87;;
16139;SDS011;8175;49.326;12.690;2023-02-04T08:15:34;0.70;;;0.70;;
16139;SDS011;8175;49.326;12.690;2023-02-04T08:18:00;1.10;;;0.90;;
16139;SDS011;8175;49.326;12.690;2023-02-04T08:20:25;1.03;;;0.60;;
16139;SDS011;8175;49.326;12.690;2023-02-04T08:22:51;0.87;;;0.87;;
16139;SDS011;8175;49.326;12.690;2023-02-04T08:25:17;1.00;;;0.90;;
16139;SDS011;8175;49.326;12.690;2023-02-04T08:27:42;0.60;;;0.60;;
16139;SDS011;8175;49.326;12.690;2023-02-04T08:30:08;0.50;;;0.50;;
16139;SDS011;8175;49.326;12.690;2023-02-04T08:32:34;1.07;;;0.60;;
16139;SDS011;8175;49.326;12.690;2023-02-04T08:35:00;0.80;;;0.80;;
16139;SDS011;8175;49.326;12.690;2023-02-04T08:37:26;0.80;;;0.80;;
16139;SDS011;8175;49.326;12.690;2023-02-04T08:39:51;1.03;;;0.70;;
16139;SDS011;8175;49.326;12.690;2023-02-04T08:42:17;0.73;;;0.63;;
16139;SDS011;8175;49.326;12.690;2023-02-04T08:44:43;1.17;;;1.07;;
16139;SDS011;8175;49.326;12.690;2023-02-04T08:47:08;0.80;;;0.80;;
16139;SDS011;8175;49.326;12.690;2023-02-04T08:49:35;0.70;;;0.70;;
16139;SDS011;8175;49.326;12.690;2023-02-04T08:52:01;0.90;;;0.90;;
16139;SDS011;8175;49.326;12.690;2023-02-04T08:54:28;1.10;;;1.03;;
16139;SDS011;8175;49.326;12.690;2023-02-04T08:56:54;0.93;;;0.90;;
16139;SDS011;8175;49.326;12.690;2023-02-04T08:59:20;0.90;;;0.90;;
16139;SDS011;8175;49.326;12.690;2023-02-04T09:01:49;1.10;;;0.90;;
16139;SDS011;8175;49.326;12.690;2023-02-04T09:04:17;1.40;;;0.80;;
16139;SDS011;8175;49.326;12.690;2023-02-04T09:06:43;1.00;;;0.90;;
16139;SDS011;8175;49.326;12.690;2023-02-04T09:09:09;0.70;;;0.63;;
16139;SDS011;8175;49.326;12.690;2023-02-04T09:11:35;0.63;;;0.57;;
16139;SDS011;8175;49.326;12.690;2023-02-04T09:14:01;1.10;;;1.00;;
16139;SDS011;8175;49.326;12.690;2023-02-04T09:16:27;1.00;;;0.97;;
16139;SDS011;8175;49.326;12.690;2023-02-04T09:18:53;4.30;;;0.90;;
16139;SDS011;8175;49.326;12.690;2023-02-04T09:21:18;0.70;;;0.70;;
16139;SDS011;8175;49.326;12.690;2023-02-04T09:23:44;0.93;;;0.77;;
16139;SDS011;8175;49.326;12.690;2023-02-04T09:26:11;0.70;;;0.70;;
16139;SDS011;8175;49.326;12.690;2023-02-04T09:28:37;0.50;;;0.50;;
16139;SDS011;8175;49.326;12.690;2023-02-04T09:31:03;0.50;;;0.50;;
16139;SDS011;8175;49.326;12.690;2023-02-04T09:33:30;0.63;;;0.50;;
16139;SDS011;8175;49.326;12.690;2023-02-04T09:35:57;0.50;;;0.50;;
16139;SDS011;8175;49.326;12.690;2023-02-04T09:38:22;0.97;;;0.53;;
16139;SDS011;8175;49.326;12.690;2023-02-04T09:40:50;0.30;;;0.30;;
16139;SDS011;8175;49.326;12.690;2023-02-04T09:43:20;0.73;;;0.60;;
16139;SDS011;8175;49.326;12.690;2023-02-04T09:45:51;1.00;;;0.50;;
16139;SDS011;8175;49.326;12.690;2023-02-04T09:48:18;0.87;;;0.80;;
16139;SDS011;8175;49.326;12.690;2023-02-04T09:50:45;0.50;;;0.50;;
16139;SDS011;8175;49.326;12.690;2023-02-04T09:53:12;0.53;;;0.50;;
16139;SDS011;8175;49.326;12.690;2023-02-04T09:55:42;0.53;;;0.53;;
16139;SDS011;8175;49.326;12.690;2023-02-04T09:58:13;0.57;;;0.57;;
16139;SDS011;8175;49.326;12.690;2023-02-04T10:00:43;0.77;;;0.77;;
16139;SDS011;8175;49.326;12.690;2023-02-04T10:03:13;0.60;;;0.60;;
16139;SDS011;8175;49.326;12.690;2023-02-04T10:05:41;0.43;;;0.43;;
16139;SDS011;8175;49.326;12.690;2023-02-04T10:08:12;0.80;;;0.80;;
16139;SDS011;8175;49.326;12.690;2023-02-04T10:10:43;0.70;;;0.70;;
16139;SDS011;8175;49.326;12.690;2023-02-04T10:13:18;0.70;;;0.70;;
16139;SDS011;8175;49.326;12.690;2023-02-04T10:15:48;1.20;;;0.77;;
16139;SDS011;8175;49.326;12.690;2023-02-04T10:18:18;0.80;;;0.80;;
16139;SDS011;8175;49.326;12.690;2023-02-04T10:20:53;0.70;;;0.70;;
16139;SDS011;8175;49.326;12.690;2023-02-04T10:23:30;0.90;;;0.90;;
16139;SDS011;8175;49.326;12.690;2023-02-04T10:25:56;0.70;;;0.70;;
16139;SDS011;8175;49.326;12.690;2023-02-04T10:28:31;0.60;;;0.50;;
16139;SDS011;8175;49.326;12.690;2023-02-04T10:30:57;0.63;;;0.63;;
16139;SDS011;8175;49.326;12.690;2023-02-04T10:33:23;0.73;;;0.50;;
16139;SDS011;8175;49.326;12.690;2023-02-04T10:35:50;0.63;;;0.50;;
16139;SDS011;8175;49.326;12.690;2023-02-04T10:38:17;0.70;;;0.40;;
16139;SDS011;8175;49.326;12.690;2023-02-04T10:40:43;0.67;;;0.67;;
16139;SDS011;8175;49.326;12.690;2023-02-04T10:43:19;1.50;;;0.73;;
16139;SDS011;8175;49.326;12.690;2023-02-04T10:45:47;1.00;;;0.53;;
16139;SDS011;8175;49.326;12.690;2023-02-04T10:48:21;0.50;;;0.50;;
16139;SDS011;8175;49.326;12.690;2023-02-04T10:50:47;0.73;;;0.73;;
16139;SDS011;8175;49.326;12.690;2023-02-04T10:53:20;0.83;;;0.83;;
16139;SDS011;8175;49.326;12.690;2023-02-04T10:56:09;0.97;;;0.57;;
16139;SDS011;8175;49.326;12.690;2023-02-04T10:58:40;0.50;;;0.50;;
16139;SDS011;8175;49.326;12.690;2023-02-04T11:01:10;0.67;;;0.67;;
16139;SDS011;8175;49.326;12.690;2023-02-04T11:03:37;0.70;;;0.70;;
16139;SDS011;8175;49.326;12.690;2023-02-04T11:06:07;0.60;;;0.60;;
16139;SDS011;8175;49.326;12.690;2023-02-04T11:08:41;0.80;;;0.80;;
16139;SDS011;8175;49.326;12.690;2023-02-04T11:21:22;0.83;;;0.83;;
16139;SDS011;8175;49.326;12.690;2023-02-04T11:23:49;0.50;;;0.50;;
16139;SDS011;8175;49.326;12.690;2023-02-04T11:26:36;0.60;;;0.60;;
16139;SDS011;8175;49.326;12.690;2023-02-04T11:39:31;0.90;;;0.90;;
16139;SDS011;8175;49.326;12.690;2023-02-04T11:41:58;0.70;;;0.70;;
16139;SDS011;8175;49.326;12.690;2023-02-04T11:44:25;0.90;;;0.90;;
16139;SDS011;8175;49.326;12.690;2023-02-04T11:46:51;0.40;;;0.40;;
16139;SDS011;8175;49.326;12.690;2023-02-04T11:49:20;0.80;;;0.70;;
16139;SDS011;8175;49.326;12.690;2023-02-04T11:51:48;0.80;;;0.80;;
16139;SDS011;8175;49.326;12.690;2023-02-04T11:54:15;0.60;;;0.60;;
16139;SDS011;8175;49.326;12.690;2023-02-04T11:56:46;0.97;;;0.80;;
16139;SDS011;8175;49.326;12.690;2023-02-04T11:59:12;0.70;;;0.50;;
16139;SDS011;8175;49.326;12.690;2023-02-04T12:01:38;0.87;;;0.70;;
16139;SDS011;8175;49.326;12.690;2023-02-04T12:04:20;0.50;;;0.50;;
16139;SDS011;8175;49.326;12.690;2023-02-04T12:06:56;0.80;;;0.70;;
16139;SDS011;8175;49.326;12.690;2023-02-04T12:09:26;0.80;;;0.80;;
16139;SDS011;8175;49.326;12.690;2023-02-04T12:11:57;1.20;;;0.50;;
16139;SDS011;8175;49.326;12.690;2023-02-04T12:14:32;0.60;;;0.60;;
16139;SDS011;8175;49.326;12.690;2023-02-04T12:17:00;0.40;;;0.40;;
16139;SDS011;8175;49.326;12.690;2023-02-04T12:19:39;1.43;;;0.70;;
16139;SDS011;8175;49.326;12.690;2023-02-04T12:22:05;0.60;;;0.60;;
16139;SDS011;8175;49.326;12.690;2023-02-04T12:24:31;1.07;;;1.07;;
16139;SDS011;8175;49.326;12.690;2023-02-04T12:26:56;0.43;;;0.43;;
16139;SDS011;8175;49.326;12.690;2023-02-04T12:29:22;0.40;;;0.40;;
16139;SDS011;8175;49.326;12.690;2023-02-04T12:31:47;0.30;;;0.30;;
16139;SDS011;8175;49.326;12.690;2023-02-04T12:34:13;0.30;;;0.30;;
16139;SDS011;8175;49.326;12.690;2023-02-04T12:36:41;0.40;;;0.40;;
16139;SDS011;8175;49.326;12.690;2023-02-04T12:39:07;0.70;;;0.50;;
16139;SDS011;8175;49.326;12.690;2023-02-04T12:41:34;0.40;;;0.40;;
16139;SDS011;8175;49.326;12.690;2023-02-04T12:44:00;0.43;;;0.43;;
16139;SDS011;8175;49.326;12.690;2023-02-04T12:46:26;0.40;;;0.40;;
16139;SDS011;8175;49.326;12.690;2023-02-04T12:48:53;0.60;;;0.43;;
16139;SDS011;8175;49.326;12.690;2023-02-04T12:51:18;0.60;;;0.60;;
16139;SDS011;8175;49.326;12.690;2023-02-04T12:53:45;0.60;;;0.60;;
16139;SDS011;8175;49.326;12.690;2023-02-04T12:56:12;0.50;;;0.50;;
16139;SDS011;8175;49.326;12.690;2023-02-04T12:58:38;1.43;;;0.60;;
16139;SDS011;8175;49.326;12.690;2023-02-04T13:01:04;0.50;;;0.50;;
16139;SDS011;8175;49.326;12.690;2023-02-04T13:03:30;0.63;;;0.63;;
16139;SDS011;8175;49.326;12.690;2023-02-04T13:05:56;0.60;;;0.60;;
16139;SDS011;8175;49.326;12.690;2023-02-04T13:08:22;0.70;;;0.60;;
16139;SDS011;8175;49.326;12.690;2023-02-04T13:10:48;0.60;;;0.53;;
16139;SDS011;8175;49.326;12.690;2023-02-04T13:13:16;0.70;;;0.60;;
16139;SDS011;8175;49.326;12.690;2023-02-04T13:15:43;0.70;;;0.70;;
16139;SDS011;8175;49.326;12.690;2023-02-04T13:18:09;0.60;;;0.60;;
16139;SDS011;8175;49.326;12.690;2023-02-04T13:20:35;1.30;;;1.20;;
16139;SDS011;8175;49.326;12.690;2023-02-04T13:23:00;0.60;;;0.60;;
16139;SDS011;8175;49.326;12.690;2023-02-04T13:25:26;0.70;;;0.47;;
16139;SDS011;8175;49.326;12.690;2023-02-04T13:27:52;0.77;;;0.77;;
16139;SDS011;8175;49.326;12.690;2023-02-04T13:30:17;0.73;;;0.73;;
16139;SDS011;8175;49.326;12.690;2023-02-04T13:32:43;0.53;;;0.47;;
16139;SDS011;8175;49.326;12.690;2023-02-04T13:35:09;0.70;;;0.70;;
16139;SDS011;8175;49.326;12.690;2023-02-04T13:37:35;0.60;;;0.60;;
16139;SDS011;8175;49.326;12.690;2023-02-04T13:40:02;0.63;;;0.60;;
16139;SDS011;8175;49.326;12.690;2023-02-04T13:42:29;0.70;;;0.60;;
16139;SDS011;8175;49.326;12.690;2023-02-04T13:44:55;0.70;;;0.70;;
16139;SDS011;8175;49.326;12.690;2023-02-04T13:47:20;1.17;;;0.70;;
16139;SDS011;8175;49.326;12.690;2023-02-04T13:49:46;0.70;;;0.60;;
16139;SDS011;8175;49.326;12.690;2023-02-04T13:52:12;0.60;;;0.60;;
16139;SDS011;8175;49.326;12.690;2023-02-04T13:54:38;0.53;;;0.53;;
16139;SDS011;8175;49.326;12.690;2023-02-04T13:57:04;1.03;;;0.90;;
16139;SDS011;8175;49.326;12.690;2023-02-04T13:59:30;0.93;;;0.80;;
16139;SDS011;8175;49.326;12.690;2023-02-04T14:01:55;0.90;;;0.90;;
16139;SDS011;8175;49.326;12.690;2023-02-04T14:04:21;2.30;;;1.10;;
16139;SDS011;8175;49.326;12.690;2023-02-04T14:06:46;1.63;;;0.70;;
16139;SDS011;8175;49.326;12.690;2023-02-04T14:09:12;1.20;;;1.10;;
16139;SDS011;8175;49.326;12.690;2023-02-04T14:11:38;0.90;;;0.90;;
16139;SDS011;8175;49.326;12.690;2023-02-04T14:14:03;1.60;;;1.50;;
16139;SDS011;8175;49.326;12.690;2023-02-04T14:16:30;1.00;;;1.00;;
16139;SDS011;8175;49.326;12.690;2023-02-04T14:18:55;1.93;;;1.13;;
16139;SDS011;8175;49.326;12.690;2023-02-04T14:21:21;1.23;;;1.13;;
16139;SDS011;8175;49.326;12.690;2023-02-04T14:23:47;1.67;;;1.13;;
16139;SDS011;8175;49.326;12.690;2023-02-04T14:26:12;1.40;;;1.30;;
16139;SDS011;8175;49.326;12.690;2023-02-04T14:28:38;1.17;;;1.10;;
16139;SDS011;8175;49.326;12.690;2023-02-04T14:31:04;1.20;;;1.10;;
16139;SDS011;8175;49.326;12.690;2023-02-04T14:33:29;1.20;;;1.00;;
16139;SDS011;8175;49.326;12.690;2023-02-04T14:35:55;1.10;;;1.00;;
16139;SDS011;8175;49.326;12.690;2023-02-04T14:38:21;1.33;;;1.23;;
16139;SDS011;8175;49.326;12.690;2023-02-04T14:40:46;1.00;;;1.00;;
16139;SDS011;8175;49.326;12.690;2023-02-04T14:43:12;1.73;;;1.33;;
16139;SDS011;8175;49.326;12.690;2023-02-04T14:45:38;0.93;;;0.93;;
16139;SDS011;8175;49.326;12.690;2023-02-04T14:48:04;1.23;;;1.13;;
16139;SDS011;8175;49.326;12.690;2023-02-04T14:50:31;1.10;;;0.90;;
16139;SDS011;8175;49.326;12.690;2023-02-04T14:52:57;1.00;;;0.90;;
16139;SDS011;8175;49.326;12.690;2023-02-04T14:55:23;0.70;;;0.70;;
16139;SDS011;8175;49.326;12.690;2023-02-04T14:57:49;1.50;;;0.80;;
16139;SDS011;8175;49.326;12.690;2023-02-04T15:00:14;0.83;;;0.83;;
16139;SDS011;8175;49.326;12.690;2023-02-04T15:02:40;0.97;;;0.97;;
16139;SDS011;8175;49.326;12.690;2023-02-04T15:05:06;1.27;;;1.17;;